M I D A S
Marine Information and Data Acquisition System
Tripno 2022 of the Zeeleeuw from 2010-09-07 06:20:03 to 2010-09-07 10:14:17
Back to CruiseResearch ActivitiesStationsMapUnderway DataData graphs

EquipmentUnitsComment
TimeDGPSUTC
LatitudeDGPSDM.mWGS84
LongitudeDGPSDM.mWGS84
HeadingGyrodeg 
SOGDGPSknotsSpeed over ground
COGDGPSdegCourse over ground
DepthEcho soundermeters200 kHz
Missing or incorrect values are displayed as -999
Navigation data collected by the RV Zeeleeuw from 2010-09-07 06:20:47 to 2010-09-07 10:14:16
                                                                                    Next 1000 lines
Time Latitude Longitude Heading SOG COG Depth
2010-09-07 06:20:57 51°13.663 2°55.956 109.1 0.9 296 5.2
2010-09-07 06:21:02 51°13.663 2°55.954 109.1 1.2 290 4.9
2010-09-07 06:21:07 51°13.664 2°55.951 109 1.6 292 5
2010-09-07 06:21:12 51°13.665 2°55.947 108.8 1.8 290 5
2010-09-07 06:21:17 51°13.666 2°55.943 108.6 2.1 291 5.2
2010-09-07 06:21:22 51°13.667 2°55.937 108.9 2.5 290 -999
2010-09-07 06:21:27 51°13.668 2°55.932 109.7 2.9 292 -999
2010-09-07 06:21:32 51°13.67 2°55.925 109.9 3 290 -999
2010-09-07 06:21:37 51°13.671 2°55.919 109.9 3.2 293 -999
2010-09-07 06:21:42 51°13.673 2°55.912 109.4 3.4 290 -999
2010-09-07 06:21:47 51°13.674 2°55.904 108.6 3.7 289 -999
2010-09-07 06:21:52 51°13.676 2°55.896 106.8 3.9 287 -999
2010-09-07 06:21:57 51°13.677 2°55.887 104.6 4.1 284 -999
2010-09-07 06:22:02 51°13.678 2°55.878 102.7 4.3 283 -999
2010-09-07 06:22:07 51°13.679 2°55.869 101.4 4.4 281 -999
2010-09-07 06:22:12 51°13.681 2°55.86 101 4.4 282 -999
2010-09-07 06:22:17 51°13.683 2°55.85 101.2 4.3 281 -999
2010-09-07 06:22:22 51°13.684 2°55.841 101.2 4.3 282 -999
2010-09-07 06:22:27 51°13.685 2°55.832 100.9 4.2 281 -999
2010-09-07 06:22:32 51°13.686 2°55.823 100.5 4.2 281 -999
2010-09-07 06:22:37 51°13.687 2°55.814 99.5 4.1 280 -999
2010-09-07 06:22:42 51°13.688 2°55.805 98.4 3.9 279 -999
2010-09-07 06:22:47 51°13.689 2°55.797 97 3.8 277 -999
2010-09-07 06:22:52 51°13.689 2°55.789 95.4 3.7 277 -999
2010-09-07 06:22:57 51°13.69 2°55.781 93.7 3.5 275 -999
2010-09-07 06:23:02 51°13.69 2°55.773 92.1 3.3 273 -999
2010-09-07 06:23:07 51°13.69 2°55.766 90.1 3.2 271 -999
2010-09-07 06:23:12 51°13.69 2°55.76 87.5 3.1 269 -999
2010-09-07 06:23:17 51°13.69 2°55.753 85.3 2.9 266 11.1
2010-09-07 06:23:22 51°13.689 2°55.747 83.1 2.6 262 11.1
2010-09-07 06:23:27 51°13.689 2°55.743 80.8 2.1 257 11.4
2010-09-07 06:23:32 51°13.688 2°55.739 78.4 1.8 255 11.7
2010-09-07 06:23:37 51°13.687 2°55.736 74.6 1.5 250 11.5
2010-09-07 06:23:41 51°13.687 2°55.734 71.7 1 247 11.4
2010-09-07 06:23:47 51°13.686 2°55.733 68.8 0.4 231 11.5
2010-09-07 06:23:52 51°13.686 2°55.733 66.1 0.1 185 11.5
2010-09-07 06:23:56 51°13.686 2°55.734 60.6 0.3 87 11.5
2010-09-07 06:24:01 51°13.686 2°55.735 56.3 0.5 68 11.5
2010-09-07 06:24:06 51°13.686 2°55.736 52.1 0.7 64 11.4
2010-09-07 06:24:11 51°13.687 2°55.737 48.7 0.9 57 11.5
2010-09-07 06:24:16 51°13.688 2°55.739 43.3 1 54 11.5
2010-09-07 06:24:21 51°13.689 2°55.741 39.8 1.2 48 11.6
2010-09-07 06:24:26 51°13.69 2°55.744 34.4 1.5 45 11.8
2010-09-07 06:24:31 51°13.692 2°55.746 29.8 1.6 37 11.7
2010-09-07 06:24:36 51°13.694 2°55.748 24.8 1.7 35 11.7
2010-09-07 06:24:40 51°13.695 2°55.749 20.9 1.8 28 12
2010-09-07 06:24:46 51°13.698 2°55.751 15.2 1.9 23 12
2010-09-07 06:24:51 51°13.701 2°55.752 10.3 2 16 12.2
2010-09-07 06:24:56 51°13.704 2°55.753 5.4 2.2 7 12.7
2010-09-07 06:25:00 51°13.707 2°55.753 0.3 2.5 1 12.8
2010-09-07 06:25:05 51°13.71 2°55.753 355.7 2.7 350 12.6
2010-09-07 06:25:10 51°13.715 2°55.752 348.8 3.1 344 12.3
2010-09-07 06:25:16 51°13.72 2°55.747 340.4 3.4 334 12
2010-09-07 06:25:20 51°13.724 2°55.744 334.9 3.7 331 11.6
2010-09-07 06:25:25 51°13.729 2°55.738 331.4 4.2 323 11.2
2010-09-07 06:25:30 51°13.734 2°55.732 327.3 4.6 321 10.9
2010-09-07 06:25:35 51°13.739 2°55.725 323.8 5 318 10.8
2010-09-07 06:25:40 51°13.744 2°55.717 322.1 5.3 319 10.8
2010-09-07 06:25:45 51°13.751 2°55.709 322.1 5.7 321 10.4
2010-09-07 06:25:50 51°13.758 2°55.701 323.7 6.1 323 10.3
2010-09-07 06:25:55 51°13.764 2°55.692 325.1 6.5 324 10.5
2010-09-07 06:26:00 51°13.772 2°55.684 325.8 6.7 325 10.5
2010-09-07 06:26:04 51°13.778 2°55.677 326.6 7 324 10.5
2010-09-07 06:26:09 51°13.787 2°55.668 327 7.2 327 10.4
2010-09-07 06:26:14 51°13.795 2°55.659 328.2 7.4 329 10.4
2010-09-07 06:26:20 51°13.806 2°55.65 330.3 7.6 332 10.5
2010-09-07 06:26:24 51°13.814 2°55.644 333.3 7.7 334 10.6
2010-09-07 06:26:29 51°13.824 2°55.637 334.6 7.8 335 10.6
2010-09-07 06:26:34 51°13.834 2°55.629 335.4 8 335 10.3
2010-09-07 06:26:39 51°13.844 2°55.622 335.5 8.2 335 10.2
2010-09-07 06:26:44 51°13.854 2°55.614 335.7 8.3 335 10
2010-09-07 06:26:49 51°13.865 2°55.606 335.7 8.4 335 9.8
2010-09-07 06:26:54 51°13.876 2°55.598 335.8 8.6 335 9.5
2010-09-07 06:26:59 51°13.887 2°55.59 336.4 8.7 335 9.5
2010-09-07 06:27:04 51°13.898 2°55.582 336.6 8.8 335 9.6
2010-09-07 06:27:09 51°13.909 2°55.574 336.8 8.9 335 9.5
2010-09-07 06:27:14 51°13.92 2°55.566 337.2 9 336 9.8
2010-09-07 06:27:19 51°13.932 2°55.557 337.4 9.1 336 9.8
2010-09-07 06:27:24 51°13.944 2°55.549 337.4 9.2 336 9.8
2010-09-07 06:27:28 51°13.953 2°55.543 337 9.3 335 9.8
2010-09-07 06:27:33 51°13.965 2°55.535 336.9 9.4 336 9.9
2010-09-07 06:27:38 51°13.977 2°55.526 337 9.4 335 9.8
2010-09-07 06:27:44 51°13.991 2°55.515 337 9.5 335 9.7
2010-09-07 06:27:48 51°14.001 2°55.508 336.8 9.5 335 9.4
2010-09-07 06:27:54 51°14.015 2°55.497 336.9 9.6 336 9.4
2010-09-07 06:27:58 51°14.025 2°55.49 336.7 9.6 335 9.3
2010-09-07 06:28:04 51°14.04 2°55.479 336.5 9.7 336 9.2
2010-09-07 06:28:08 51°14.049 2°55.472 336.9 9.7 336 9.4
2010-09-07 06:28:14 51°14.064 2°55.461 336.5 9.8 334 9.4
2010-09-07 06:28:19 51°14.076 2°55.451 335.5 9.8 333 9.4
2010-09-07 06:28:24 51°14.088 2°55.441 335.4 9.9 333 9.5
2010-09-07 06:28:28 51°14.098 2°55.433 335.6 9.9 334 9.4
2010-09-07 06:28:33 51°14.111 2°55.424 336.5 9.9 336 9.9
2010-09-07 06:28:38 51°14.124 2°55.416 338.3 9.9 338 9.8
2010-09-07 06:28:44 51°14.139 2°55.406 339.3 9.9 338 9.7
2010-09-07 06:28:48 51°14.149 2°55.399 338.6 9.9 335 9.7
2010-09-07 06:28:53 51°14.161 2°55.39 337.2 9.9 334 9.8
2010-09-07 06:28:58 51°14.173 2°55.379 335.8 9.9 333 10
2010-09-07 06:29:04 51°14.188 2°55.367 334.7 9.9 333 10
2010-09-07 06:29:08 51°14.198 2°55.359 335.1 10 335 10
2010-09-07 06:29:13 51°14.21 2°55.35 335.6 10 333 10
2010-09-07 06:29:18 51°14.223 2°55.34 334.3 10 331 9.7
2010-09-07 06:29:24 51°14.237 2°55.327 333.1 10 330 9.6
2010-09-07 06:29:28 51°14.247 2°55.318 332 10 329 9.3
2010-09-07 06:29:32 51°14.256 2°55.309 331.2 10 330 9.4
2010-09-07 06:29:38 51°14.271 2°55.296 331.1 10 330 9.3
2010-09-07 06:29:44 51°14.285 2°55.282 330.5 10 327 9.4
2010-09-07 06:29:48 51°14.295 2°55.271 328.6 10.1 326 9.4
2010-09-07 06:29:54 51°14.31 2°55.255 327.2 10.2 326 9.7
2010-09-07 06:29:58 51°14.32 2°55.246 328.1 10.3 328 9.7
2010-09-07 06:30:04 51°14.334 2°55.232 329.3 10.3 329 -999
2010-09-07 06:30:08 51°14.344 2°55.223 329.9 10.4 330 -999
2010-09-07 06:30:14 51°14.358 2°55.209 330.9 10.4 331 9.1
2010-09-07 06:30:19 51°14.371 2°55.197 330.9 10.5 328 9.8
2010-09-07 06:30:24 51°14.383 2°55.185 330.3 10.6 329 9
2010-09-07 06:30:28 51°14.393 2°55.175 329.7 10.7 328 9.1
2010-09-07 06:30:33 51°14.406 2°55.163 330.3 10.9 330 9.4
2010-09-07 06:30:38 51°14.419 2°55.151 330.7 11 329 9.4
2010-09-07 06:30:44 51°14.435 2°55.136 330.4 11.1 329 9.2
2010-09-07 06:30:48 51°14.446 2°55.125 329.3 11.3 327 9.7
2010-09-07 06:30:53 51°14.459 2°55.111 328.5 11.5 327 9.4
2010-09-07 06:30:58 51°14.472 2°55.097 328.4 11.7 326 9.8
2010-09-07 06:31:04 51°14.489 2°55.08 328.8 12 327 9.7
2010-09-07 06:31:08 51°14.5 2°55.067 328.2 12.2 326 9.7
2010-09-07 06:31:13 51°14.514 2°55.052 328.3 12.4 326 9.9
2010-09-07 06:31:18 51°14.529 2°55.036 328.3 12.5 324 10
2010-09-07 06:31:24 51°14.545 2°55.016 328.1 12.7 322 9.9
2010-09-07 06:31:28 51°14.556 2°55.001 327.6 12.9 320 9.8
2010-09-07 06:31:33 51°14.57 2°54.982 326.2 13 319 10
2010-09-07 06:31:38 51°14.584 2°54.964 327.3 13 322 9.9
2010-09-07 06:31:43 51°14.598 2°54.946 328.4 13.1 321 9.9
2010-09-07 06:31:48 51°14.613 2°54.929 329.1 13.1 323 9.9
2010-09-07 06:31:53 51°14.627 2°54.911 329.7 13.1 323 9.9
2010-09-07 06:31:58 51°14.642 2°54.893 329.9 13.2 323 10.1
2010-09-07 06:32:03 51°14.656 2°54.876 329.6 13.2 322 10
2010-09-07 06:32:08 51°14.671 2°54.858 329.6 13.2 325 10.1
2010-09-07 06:32:13 51°14.686 2°54.841 330.7 13.2 324 9.9
2010-09-07 06:32:18 51°14.701 2°54.824 330.8 13.2 323 10.1
2010-09-07 06:32:23 51°14.715 2°54.806 330.3 13.1 322 10.2
2010-09-07 06:32:28 51°14.729 2°54.788 328.5 13.1 320 10.1
2010-09-07 06:32:33 51°14.743 2°54.769 327 13.2 321 10.2
2010-09-07 06:32:38 51°14.758 2°54.751 327.4 13.1 321 10
2010-09-07 06:32:44 51°14.774 2°54.729 327.3 13.1 321 10
2010-09-07 06:32:48 51°14.786 2°54.714 327 13.1 321 10
2010-09-07 06:32:54 51°14.802 2°54.692 326.7 13.1 320 10.1
2010-09-07 06:33:00 51°14.82 2°54.67 326.7 13.1 321 -999
2010-09-07 06:33:04 51°14.831 2°54.656 326.9 13.1 321 -999
2010-09-07 06:33:09 51°14.845 2°54.637 327 13.1 320 10
2010-09-07 06:33:16 51°14.865 2°54.611 326.9 13.2 320 -999
2010-09-07 06:33:20 51°14.877 2°54.596 326.9 13.2 320 -999
2010-09-07 06:33:27 51°14.897 2°54.57 326.9 13.1 321 -999
2010-09-07 06:33:32 51°14.91 2°54.552 327.3 13.2 321 10.1
2010-09-07 06:33:36 51°14.922 2°54.537 327.2 13 322 9.3
2010-09-07 06:33:41 51°14.936 2°54.519 327.6 13 320 8.9
2010-09-07 06:33:47 51°14.952 2°54.498 327.3 12.9 321 8.9
2010-09-07 06:33:52 51°14.966 2°54.479 327 12.9 320 8.9
2010-09-07 06:33:56 51°14.977 2°54.464 326.5 12.9 320 9.1
2010-09-07 06:34:01 51°14.99 2°54.446 326.2 13 319 8.9
2010-09-07 06:34:06 51°15.004 2°54.427 325.6 13 319 8.7
2010-09-07 06:34:12 51°15.02 2°54.405 325.5 12.9 321 8.8
2010-09-07 06:34:16 51°15.031 2°54.39 326.6 12.9 321 8.7
2010-09-07 06:34:21 51°15.045 2°54.374 327.4 12.8 322 8.7
2010-09-07 06:34:26 51°15.059 2°54.356 328.2 12.9 323 8.6
2010-09-07 06:34:31 51°15.074 2°54.339 329.1 12.9 322 8.7
2010-09-07 06:34:36 51°15.088 2°54.321 329.6 12.9 323 8.9
2010-09-07 06:34:41 51°15.102 2°54.305 330 12.9 323 8.8
2010-09-07 06:34:46 51°15.117 2°54.287 330.3 13 323 8.7
2010-09-07 06:34:51 51°15.131 2°54.27 330.3 13 324 8.7
2010-09-07 06:34:56 51°15.146 2°54.253 330.5 13 324 9.1
2010-09-07 06:35:00 51°15.158 2°54.24 330.7 13 323 8.9
2010-09-07 06:35:06 51°15.175 2°54.219 330.5 13.1 323 8.9
2010-09-07 06:35:10 51°15.186 2°54.204 330.4 13.1 323 9.1
2010-09-07 06:35:16 51°15.204 2°54.183 330.2 13.1 323 9.2
2010-09-07 06:35:20 51°15.216 2°54.169 330 13.1 323 9.1
2010-09-07 06:35:25 51°15.23 2°54.152 330 13.1 322 9.3
2010-09-07 06:35:30 51°15.245 2°54.134 329.7 13.2 322 9.2
2010-09-07 06:35:35 51°15.259 2°54.116 329.2 13.1 322 9.4
2010-09-07 06:35:40 51°15.273 2°54.098 329.2 13.2 322 9.1
2010-09-07 06:35:45 51°15.288 2°54.08 329.2 13.2 322 9.2
2010-09-07 06:35:50 51°15.302 2°54.062 329.3 13.2 323 9.2
2010-09-07 06:35:55 51°15.317 2°54.045 329.5 13.1 323 9.3
2010-09-07 06:36:00 51°15.331 2°54.027 329.9 13.2 323 9.3
2010-09-07 06:36:05 51°15.346 2°54.009 329.4 13.2 322 9.6
2010-09-07 06:36:10 51°15.36 2°53.991 328.9 13.1 322 9.5
2010-09-07 06:36:15 51°15.375 2°53.973 328.7 13.2 322 9.4
2010-09-07 06:36:20 51°15.389 2°53.956 328.4 13.2 322 9.4
2010-09-07 06:36:24 51°15.401 2°53.941 328.2 13.2 321 9.6
2010-09-07 06:36:29 51°15.415 2°53.923 328.2 13.2 322 9.6
2010-09-07 06:36:35 51°15.432 2°53.901 328.2 13.2 322 9.4
2010-09-07 06:36:39 51°15.444 2°53.887 328.1 13.2 322 9.7
2010-09-07 06:36:44 51°15.458 2°53.868 328.2 13.2 322 9.7
2010-09-07 06:36:49 51°15.473 2°53.85 328.4 13.2 322 9.7
2010-09-07 06:36:54 51°15.487 2°53.832 328.5 13.2 321 9.7
2010-09-07 06:36:59 51°15.501 2°53.814 328.2 13.2 321 9.9
2010-09-07 06:37:04 51°15.516 2°53.795 328.1 13.2 321 9.8
2010-09-07 06:37:09 51°15.53 2°53.777 327.9 13.2 321 9.9
2010-09-07 06:37:14 51°15.544 2°53.758 328.1 13.2 321 10
2010-09-07 06:37:19 51°15.559 2°53.741 328.3 13.2 322 9.9
2010-09-07 06:37:24 51°15.573 2°53.722 328.5 13.2 321 9.8
2010-09-07 06:37:28 51°15.585 2°53.708 328.4 13.2 322 9.9
2010-09-07 06:37:33 51°15.599 2°53.69 328.4 13.2 322 10
2010-09-07 06:37:39 51°15.617 2°53.669 328.6 13.2 323 10.1
2010-09-07 06:37:44 51°15.631 2°53.652 330.1 13.1 324 10.2
2010-09-07 06:37:48 51°15.643 2°53.639 330.9 13.2 325 10.2
2010-09-07 06:37:53 51°15.658 2°53.622 331.5 13.2 325 10.1
2010-09-07 06:37:58 51°15.673 2°53.606 332.3 13.1 327 10.1
2010-09-07 06:38:04 51°15.691 2°53.586 332.8 13.1 325 10.2
2010-09-07 06:38:08 51°15.704 2°53.573 332.6 13.1 326 10.3
2010-09-07 06:38:13 51°15.719 2°53.557 333.2 13.1 326 10.5
2010-09-07 06:38:18 51°15.734 2°53.541 333.2 13.1 326 10.4
2010-09-07 06:38:23 51°15.749 2°53.526 333.8 13.1 328 10.4
2010-09-07 06:38:28 51°15.764 2°53.51 333.9 13.1 327 10.5
2010-09-07 06:38:33 51°15.78 2°53.495 334 13.1 327 10.3
2010-09-07 06:38:38 51°15.795 2°53.479 334 13.1 327 10.5
2010-09-07 06:38:43 51°15.81 2°53.463 333.7 13.1 327 10.5
2010-09-07 06:38:48 51°15.825 2°53.447 333.2 13.1 326 10.4
2010-09-07 06:38:53 51°15.84 2°53.431 333.2 13 327 10.4
2010-09-07 06:38:58 51°15.855 2°53.415 333.3 13.1 326 10.6
2010-09-07 06:39:03 51°15.87 2°53.399 333.3 13.1 326 10.6
2010-09-07 06:39:08 51°15.885 2°53.382 333.2 13.1 326 10.5
2010-09-07 06:39:13 51°15.9 2°53.366 333 13.1 326 10.3
2010-09-07 06:39:18 51°15.915 2°53.35 332.9 13 325 10.3
2010-09-07 06:39:24 51°15.933 2°53.331 333 13 326 10.5
2010-09-07 06:39:28 51°15.944 2°53.317 333.1 13 325 10.9
2010-09-07 06:39:33 51°15.959 2°53.301 333 13 326 10.1
2010-09-07 06:39:38 51°15.974 2°53.285 333.1 12.9 325 10.4
2010-09-07 06:39:44 51°15.992 2°53.265 333.3 13 326 10.7
2010-09-07 06:39:48 51°16.004 2°53.252 333.4 13 326 10.7
2010-09-07 06:39:53 51°16.019 2°53.236 333.4 13 325 10.6
2010-09-07 06:39:58 51°16.033 2°53.219 333 13 324 10.7
2010-09-07 06:40:04 51°16.05 2°53.199 332.9 13 324 10.7
2010-09-07 06:40:08 51°16.062 2°53.185 332.5 13 324 10.8
2010-09-07 06:40:13 51°16.077 2°53.168 332.4 13 324 10.6
2010-09-07 06:40:18 51°16.092 2°53.152 332.8 13 326 10.6
2010-09-07 06:40:23 51°16.107 2°53.136 333.5 12.9 327 10.8
2010-09-07 06:40:28 51°16.122 2°53.121 334 12.9 327 10.6
2010-09-07 06:40:33 51°16.137 2°53.105 334 12.8 327 10.7
2010-09-07 06:40:38 51°16.151 2°53.09 334.1 12.9 327 11
2010-09-07 06:40:43 51°16.166 2°53.075 333.9 12.8 327 10.8
2010-09-07 06:40:48 51°16.181 2°53.059 333.9 12.8 328 10.9
2010-09-07 06:40:52 51°16.193 2°53.047 333.8 12.9 327 10.8
2010-09-07 06:40:58 51°16.211 2°53.028 333.7 12.9 327 10.8
2010-09-07 06:41:04 51°16.229 2°53.01 333.5 12.9 327 10.7
2010-09-07 06:41:08 51°16.241 2°52.997 333.2 12.9 326 10.8
2010-09-07 06:41:14 51°16.259 2°52.978 333.1 12.9 326 10.9
2010-09-07 06:41:18 51°16.271 2°52.966 332.8 12.9 326 10.7
2010-09-07 06:41:24 51°16.289 2°52.947 332.9 12.9 327 10.7
2010-09-07 06:41:28 51°16.301 2°52.935 333.2 12.9 327 10.7
2010-09-07 06:41:33 51°16.316 2°52.92 333.2 12.9 328 11.1
2010-09-07 06:41:38 51°16.331 2°52.904 333.7 12.8 330 10.9
2010-09-07 06:41:44 51°16.349 2°52.888 335.6 12.8 330 10.6
2010-09-07 06:41:48 51°16.362 2°52.876 336.1 12.8 332 11
2010-09-07 06:41:53 51°16.377 2°52.863 337.6 12.8 332 10.9
2010-09-07 06:41:58 51°16.393 2°52.85 338 12.7 333 10.8
2010-09-07 06:42:04 51°16.412 2°52.835 338.7 12.8 333 10.9
2010-09-07 06:42:08 51°16.425 2°52.825 339.1 12.7 334 10.8
2010-09-07 06:42:13 51°16.44 2°52.813 339.8 12.8 333 10.6
2010-09-07 06:42:18 51°16.457 2°52.8 339.8 12.7 334 10.4
2010-09-07 06:42:24 51°16.476 2°52.786 340.1 12.7 334 10.7
2010-09-07 06:42:28 51°16.488 2°52.776 340.2 12.7 334 10.8
2010-09-07 06:42:33 51°16.504 2°52.764 340.2 12.8 334 10.5
2010-09-07 06:42:38 51°16.52 2°52.752 340.2 12.7 334 10.2
2010-09-07 06:42:44 51°16.539 2°52.738 340 12.7 334 10.6
2010-09-07 06:42:48 51°16.552 2°52.728 340 12.7 334 10.4
2010-09-07 06:42:53 51°16.568 2°52.716 339.9 12.7 334 10.5
2010-09-07 06:42:58 51°16.584 2°52.703 339.7 12.7 334 10.4
2010-09-07 06:43:03 51°16.599 2°52.692 340.1 12.7 334 10.4
2010-09-07 06:43:08 51°16.615 2°52.679 339.9 12.7 334 10.4
2010-09-07 06:43:13 51°16.631 2°52.667 340.1 12.7 335 10.2
2010-09-07 06:43:18 51°16.647 2°52.655 340 12.6 334 10
2010-09-07 06:43:23 51°16.662 2°52.642 339.8 12.6 334 9.8
2010-09-07 06:43:28 51°16.678 2°52.63 339.8 12.6 334 9.6
2010-09-07 06:43:33 51°16.694 2°52.618 339.7 12.5 333 9.5
2010-09-07 06:43:38 51°16.709 2°52.606 339.7 12.5 334 9.2
2010-09-07 06:43:44 51°16.728 2°52.592 339.8 12.4 334 9.1
2010-09-07 06:43:48 51°16.741 2°52.582 340.1 12.4 334 8.8
2010-09-07 06:43:53 51°16.756 2°52.57 340.1 12.4 334 8.8
2010-09-07 06:43:58 51°16.771 2°52.558 340.1 12.3 333 8.7
2010-09-07 06:44:04 51°16.789 2°52.543 339.8 12.3 333 8.9
2010-09-07 06:44:08 51°16.802 2°52.533 339.8 12.3 333 9
2010-09-07 06:44:13 51°16.817 2°52.52 339.6 12.5 333 9
2010-09-07 06:44:18 51°16.833 2°52.508 339.8 12.4 334 8.8
2010-09-07 06:44:24 51°16.851 2°52.494 340 12.4 333 9
2010-09-07 06:44:28 51°16.863 2°52.483 340.2 12.4 333 8.9
2010-09-07 06:44:33 51°16.878 2°52.471 339.8 12.3 333 8.5
2010-09-07 06:44:38 51°16.893 2°52.459 339.8 12.3 333 8.9
2010-09-07 06:44:44 51°16.912 2°52.444 339.8 12.4 332 8.9
2010-09-07 06:44:48 51°16.924 2°52.434 339.1 12.4 332 8.5
2010-09-07 06:44:53 51°16.939 2°52.421 339.4 12.3 332 8.8
2010-09-07 06:44:58 51°16.954 2°52.408 339.3 12.3 332 8.8
2010-09-07 06:45:03 51°16.969 2°52.395 339.3 12.2 332 8.7
2010-09-07 06:45:08 51°16.984 2°52.382 339.2 12.3 331 8.6
2010-09-07 06:45:13 51°16.999 2°52.369 339.2 12.3 331 8.9
2010-09-07 06:45:18 51°17.014 2°52.356 339 12.4 330 8.9
2010-09-07 06:45:23 51°17.029 2°52.343 338.9 12.4 331 9
2010-09-07 06:45:28 51°17.044 2°52.329 338.7 12.4 330 9.1
2010-09-07 06:45:33 51°17.059 2°52.316 338.8 12.4 331 8.9
2010-09-07 06:45:38 51°17.074 2°52.303 338.6 12.5 330 9.3
2010-09-07 06:45:44 51°17.093 2°52.286 338.6 12.5 331 9.2
2010-09-07 06:45:48 51°17.104 2°52.275 338.9 12.5 331 9.1
2010-09-07 06:45:53 51°17.12 2°52.262 339.1 12.5 332 9.5
2010-09-07 06:45:58 51°17.135 2°52.249 339.3 12.6 332 9.8
2010-09-07 06:46:04 51°17.153 2°52.233 339.1 12.6 332 9.9
2010-09-07 06:46:08 51°17.166 2°52.223 339.3 12.7 333 10.1
2010-09-07 06:46:13 51°17.181 2°52.21 339.3 12.7 333 10.2
2010-09-07 06:46:18 51°17.197 2°52.197 339.9 12.6 334 10.2
2010-09-07 06:46:24 51°17.216 2°52.183 340.6 12.5 334 10.3
2010-09-07 06:46:28 51°17.228 2°52.173 340.9 12.6 334 10.5
2010-09-07 06:46:33 51°17.244 2°52.161 341.3 12.6 335 10.2
2010-09-07 06:46:38 51°17.26 2°52.149 341.7 12.6 335 10.6
2010-09-07 06:46:44 51°17.279 2°52.135 341.9 12.6 335 10.5
2010-09-07 06:46:48 51°17.292 2°52.126 341.9 12.6 335 10.3
2010-09-07 06:46:53 51°17.307 2°52.115 341.9 12.5 336 10.3
2010-09-07 06:46:58 51°17.324 2°52.103 341.9 12.5 334 10.4
2010-09-07 06:47:04 51°17.342 2°52.089 341.4 12.5 336 10.5
2010-09-07 06:47:08 51°17.355 2°52.079 341.8 12.5 335 10.2
2010-09-07 06:47:13 51°17.37 2°52.068 341.5 12.4 336 10.3
2010-09-07 06:47:18 51°17.386 2°52.056 341.9 12.4 335 10.3
2010-09-07 06:47:24 51°17.405 2°52.043 342.2 12.4 336 10.6
2010-09-07 06:47:28 51°17.417 2°52.033 342 12.4 334 10.3
2010-09-07 06:47:33 51°17.433 2°52.022 341.9 12.3 336 10.2
2010-09-07 06:47:38 51°17.448 2°52.01 341.8 12.3 334 9.7
2010-09-07 06:47:43 51°17.463 2°51.998 341.7 12.3 335 9.6
2010-09-07 06:47:48 51°17.479 2°51.986 341.5 12.3 334 9.4
2010-09-07 06:47:52 51°17.491 2°51.977 341.2 12.3 334 9.7
2010-09-07 06:47:58 51°17.509 2°51.962 341.2 12.3 334 9.5
2010-09-07 06:48:04 51°17.528 2°51.948 341.1 12.3 334 9.4
2010-09-07 06:48:08 51°17.54 2°51.939 341.2 12.4 334 9.3
2010-09-07 06:48:14 51°17.559 2°51.925 341.6 12.3 335 9.5
2010-09-07 06:48:19 51°17.575 2°51.913 341.8 12.4 335 9.5
2010-09-07 06:48:24 51°17.59 2°51.901 341.7 12.4 335 9.3
2010-09-07 06:48:28 51°17.603 2°51.892 341.7 12.4 335 9.5
2010-09-07 06:48:33 51°17.618 2°51.879 341.2 12.4 333 9.2
2010-09-07 06:48:38 51°17.634 2°51.868 341.2 12.3 334 9.1
2010-09-07 06:48:44 51°17.652 2°51.853 341.2 12.4 334 9.4
2010-09-07 06:48:48 51°17.664 2°51.843 341.5 12.4 334 9.3
2010-09-07 06:48:53 51°17.68 2°51.832 341.4 12.4 334 9.5
2010-09-07 06:48:58 51°17.695 2°51.819 341.2 12.4 334 9.1
2010-09-07 06:49:04 51°17.714 2°51.804 341.4 12.5 334 9.1
2010-09-07 06:49:08 51°17.726 2°51.795 341.4 12.4 335 9.2
2010-09-07 06:49:13 51°17.742 2°51.783 341.4 12.4 334 9.1
2010-09-07 06:49:18 51°17.757 2°51.772 341.5 12.5 335 9.1
2010-09-07 06:49:24 51°17.776 2°51.757 341.5 12.5 334 9
2010-09-07 06:49:28 51°17.789 2°51.747 341.2 12.5 335 9.4
2010-09-07 06:49:33 51°17.804 2°51.735 341.3 12.5 334 9.3
2010-09-07 06:49:38 51°17.82 2°51.723 341.3 12.5 335 9.1
2010-09-07 06:49:43 51°17.835 2°51.711 341.3 12.6 334 9.1
2010-09-07 06:49:48 51°17.851 2°51.699 341.3 12.6 335 9.4
2010-09-07 06:49:53 51°17.867 2°51.687 341.2 12.6 333 9.3
2010-09-07 06:49:58 51°17.883 2°51.675 341 12.6 334 9.4
2010-09-07 06:50:03 51°17.898 2°51.662 341.3 12.6 334 9.4
2010-09-07 06:50:08 51°17.914 2°51.651 341.8 12.6 334 9.6
2010-09-07 06:50:13 51°17.93 2°51.638 341.9 12.7 334 9.4
2010-09-07 06:50:18 51°17.946 2°51.626 341.9 12.6 335 9.5
2010-09-07 06:50:23 51°17.961 2°51.614 341.8 12.7 334 9.8
2010-09-07 06:50:28 51°17.977 2°51.601 341.6 12.7 334 9.4
2010-09-07 06:50:33 51°17.993 2°51.589 341.6 12.7 335 9.8
2010-09-07 06:50:38 51°18.009 2°51.577 341.6 12.7 334 9.6
2010-09-07 06:50:43 51°18.024 2°51.564 341.2 12.7 333 10.1
2010-09-07 06:50:48 51°18.04 2°51.552 341.1 12.7 334 9.9
2010-09-07 06:50:53 51°18.056 2°51.539 341.3 12.7 333 9.9
2010-09-07 06:50:58 51°18.072 2°51.527 341.2 12.7 334 10.2
2010-09-07 06:51:04 51°18.091 2°51.512 341.2 12.8 332 10.3
2010-09-07 06:51:08 51°18.104 2°51.502 341.2 12.7 335 10.5
2010-09-07 06:51:13 51°18.12 2°51.489 341.5 12.8 333 10.4
2010-09-07 06:51:18 51°18.136 2°51.477 341.3 12.8 333 10.4
2010-09-07 06:51:24 51°18.155 2°51.462 341.4 12.7 334 10.6
2010-09-07 06:51:28 51°18.167 2°51.451 341.5 12.7 333 11.2
2010-09-07 06:51:33 51°18.183 2°51.438 341.3 12.8 333 10.9
2010-09-07 06:51:38 51°18.199 2°51.425 340.4 12.9 331 10.9
2010-09-07 06:51:44 51°18.217 2°51.41 339.9 12.7 333 10.9
2010-09-07 06:51:48 51°18.23 2°51.398 339.6 12.8 330 11.5
2010-09-07 06:51:53 51°18.245 2°51.384 339.3 12.8 332 11.2
2010-09-07 06:51:58 51°18.261 2°51.37 339.2 12.8 329 11.4
2010-09-07 06:52:03 51°18.276 2°51.356 338.9 12.8 330 11.6
2010-09-07 06:52:08 51°18.291 2°51.34 336.4 12.8 325 11.9
2010-09-07 06:52:13 51°18.305 2°51.325 334.9 12.7 327 11.9
2010-09-07 06:52:18 51°18.32 2°51.308 332.9 12.7 322 11.9
2010-09-07 06:52:23 51°18.333 2°51.291 332.1 12.4 326 11.9
2010-09-07 06:52:28 51°18.348 2°51.275 332.9 12.3 323 11.8
2010-09-07 06:52:33 51°18.361 2°51.26 332.7 11.9 325 12.1
2010-09-07 06:52:38 51°18.374 2°51.245 333.2 11.6 323 12.1
2010-09-07 06:52:43 51°18.387 2°51.23 333.4 11.2 325 12.3
2010-09-07 06:52:48 51°18.399 2°51.216 333.4 10.9 323 13
2010-09-07 06:52:53 51°18.411 2°51.202 333.5 10.6 324 12.7
2010-09-07 06:52:58 51°18.423 2°51.189 333.2 9.9 323 12.6
2010-09-07 06:53:03 51°18.433 2°51.176 333.2 9.2 323 12.5
2010-09-07 06:53:08 51°18.442 2°51.164 333.8 8.6 323 12.8
2010-09-07 06:53:13 51°18.451 2°51.153 334.3 8 322 12.9
2010-09-07 06:53:18 51°18.46 2°51.143 334.4 7.5 322 12.9
2010-09-07 06:53:23 51°18.468 2°51.134 335.2 7 322 13
2010-09-07 06:53:28 51°18.475 2°51.124 335.4 6.6 322 12.9
2010-09-07 06:53:33 51°18.482 2°51.115 335.9 6.2 323 12.9
2010-09-07 06:53:38 51°18.488 2°51.107 336.8 5.9 322 12.8
2010-09-07 06:53:44 51°18.496 2°51.098 337.6 5.6 324 12.7
2010-09-07 06:53:48 51°18.501 2°51.093 339 5.4 323 12.6
2010-09-07 06:53:53 51°18.506 2°51.086 340.3 4.8 324 12.7
2010-09-07 06:53:58 51°18.511 2°51.08 341.4 4.4 321 12.7
2010-09-07 06:54:04 51°18.516 2°51.073 342.2 4.1 321 12.9
2010-09-07 06:54:08 51°18.519 2°51.069 341.4 4 316 13.1
2010-09-07 06:54:13 51°18.523 2°51.063 339 3.7 314 13.2
2010-09-07 06:54:18 51°18.526 2°51.057 336.1 3.6 309 13
2010-09-07 06:54:23 51°18.529 2°51.051 332.5 3.4 305 13
2010-09-07 06:54:28 51°18.531 2°51.045 329.5 3.2 300 13.2
2010-09-07 06:54:33 51°18.533 2°51.039 325.7 3 295 13.3
2010-09-07 06:54:38 51°18.534 2°51.033 321.7 2.7 289 13.2
2010-09-07 06:54:43 51°18.535 2°51.027 318 2.5 283 13.2
2010-09-07 06:54:48 51°18.535 2°51.022 314.4 2.3 277 13.3
2010-09-07 06:54:53 51°18.536 2°51.018 311.7 2.1 272 13.5
2010-09-07 06:54:58 51°18.536 2°51.014 309.3 1.8 268 13.3
2010-09-07 06:55:03 51°18.535 2°51.01 306.8 1.7 259 13.3
2010-09-07 06:55:08 51°18.535 2°51.007 304.1 1.5 259 13.4
2010-09-07 06:55:13 51°18.534 2°51.004 301.7 1.2 248 13.2
2010-09-07 06:55:18 51°18.533 2°51.001 299.1 1.3 232 13.1
2010-09-07 06:55:23 51°18.532 2°51 297.6 1 224 13.1
2010-09-07 06:55:28 51°18.531 2°50.998 296.8 1.1 219 13.3
2010-09-07 06:55:33 51°18.529 2°50.997 296.4 1 221 13.3
2010-09-07 06:55:38 51°18.528 2°50.995 296.1 1.1 220 13.3
2010-09-07 06:55:44 51°18.527 2°50.993 295.8 0.9 223 13.2
2010-09-07 06:55:48 51°18.526 2°50.992 295.4 1.1 222 13.3
2010-09-07 06:55:53 51°18.525 2°50.991 295.3 1 225 13.3
2010-09-07 06:55:58 51°18.524 2°50.989 295.5 1 224 13.2
2010-09-07 06:56:04 51°18.523 2°50.987 295.7 0.9 228 7
2010-09-07 06:56:08 51°18.523 2°50.986 295.9 1 226 6.7
2010-09-07 06:56:13 51°18.522 2°50.985 296.2 0.9 229 6.1
2010-09-07 06:56:18 51°18.521 2°50.983 296.7 1 229 6.2
2010-09-07 06:56:23 51°18.52 2°50.981 297 1 229 6.8
2010-09-07 06:56:28 51°18.519 2°50.98 297.7 1 230 7.9
2010-09-07 06:56:33 51°18.518 2°50.978 298.2 0.8 233 4.8
2010-09-07 06:56:39 51°18.517 2°50.976 298.8 1.1 231 13.3
2010-09-07 06:56:44 51°18.516 2°50.974 299.2 1.2 230 13.6
2010-09-07 06:56:48 51°18.516 2°50.973 300.3 0.9 231 -999
2010-09-07 06:56:54 51°18.515 2°50.971 301.3 0.9 227 13
2010-09-07 06:56:59 51°18.514 2°50.97 302 0.9 228 13
2010-09-07 06:57:04 51°18.513 2°50.968 302.3 1 228 13.3
2010-09-07 06:57:08 51°18.512 2°50.967 303.1 0.9 232 13.3
2010-09-07 06:57:14 51°18.511 2°50.964 304 1 231 13.3
2010-09-07 06:57:19 51°18.511 2°50.963 304.5 0.8 233 13.2
2010-09-07 06:57:24 51°18.51 2°50.961 305.7 0.9 231 13
2010-09-07 06:57:28 51°18.509 2°50.96 306.4 1 234 13.1
2010-09-07 06:57:33 51°18.509 2°50.958 307.2 1 232 13.3
2010-09-07 06:57:38 51°18.508 2°50.957 308.3 0.9 233 13.2
2010-09-07 06:57:44 51°18.507 2°50.955 308.7 1.1 231 13.3
2010-09-07 06:57:48 51°18.506 2°50.954 309.7 0.9 235 13.1
2010-09-07 06:57:53 51°18.505 2°50.951 310.3 1 233 13.2
2010-09-07 06:57:58 51°18.504 2°50.95 310.8 1 235 13.3
2010-09-07 06:58:04 51°18.503 2°50.948 312 0.9 235 13.3
2010-09-07 06:58:08 51°18.503 2°50.946 312.9 0.9 238 13.2
2010-09-07 06:58:13 51°18.502 2°50.945 313.6 1.1 237 13.3
2010-09-07 06:58:18 51°18.501 2°50.943 314.2 0.9 239 13.5
2010-09-07 06:58:24 51°18.5 2°50.941 315 1 235 13.4
2010-09-07 06:58:28 51°18.5 2°50.939 315.4 1 237 13.3
2010-09-07 06:58:33 51°18.499 2°50.937 315.9 0.9 238 13.2
2010-09-07 06:58:38 51°18.498 2°50.935 316.4 1 235 13.2
2010-09-07 06:58:43 51°18.497 2°50.933 316.5 0.9 236 13.1
2010-09-07 06:58:48 51°18.496 2°50.931 317 1 236 13.2
2010-09-07 06:58:53 51°18.496 2°50.929 317.3 1 238 13.5
2010-09-07 06:58:58 51°18.495 2°50.928 317.9 1 237 13.5
2010-09-07 06:59:04 51°18.494 2°50.925 318.2 0.9 236 13.2
2010-09-07 06:59:08 51°18.493 2°50.924 318.2 1.1 239 13.3
2010-09-07 06:59:13 51°18.493 2°50.922 318 1 239 13.4
2010-09-07 06:59:18 51°18.492 2°50.92 318.1 1 240 13.3
2010-09-07 06:59:23 51°18.491 2°50.918 318.1 0.9 240 13.1
2010-09-07 06:59:28 51°18.49 2°50.916 318 1.1 242 13.1
2010-09-07 06:59:33 51°18.49 2°50.914 317.6 0.9 243 13.2
2010-09-07 06:59:38 51°18.489 2°50.912 317.8 1 241 13.1
2010-09-07 06:59:44 51°18.488 2°50.91 317.8 1 243 13
2010-09-07 06:59:48 51°18.487 2°50.908 317.7 1 241 13.2
2010-09-07 06:59:53 51°18.487 2°50.907 317.8 1 243 13.3
2010-09-07 06:59:58 51°18.486 2°50.904 317.6 1 240 13.1
2010-09-07 07:00:04 51°18.485 2°50.902 317.1 1.1 241 13.1
2010-09-07 07:00:08 51°18.485 2°50.901 316.7 1 242 13.6
2010-09-07 07:00:13 51°18.484 2°50.899 316.5 1 239 13.2
2010-09-07 07:00:18 51°18.484 2°50.897 316.5 1 245 13.3
2010-09-07 07:00:23 51°18.483 2°50.895 316.1 1.1 244 13.4
2010-09-07 07:00:28 51°18.482 2°50.893 316.1 1 242 13.5
2010-09-07 07:00:33 51°18.481 2°50.891 315.7 1 241 13.3
2010-09-07 07:00:38 51°18.48 2°50.889 315.3 1 242 13.3
2010-09-07 07:00:44 51°18.48 2°50.886 315 1.1 243 13.3
2010-09-07 07:00:48 51°18.479 2°50.885 315 1.1 240 13.4
2010-09-07 07:00:53 51°18.478 2°50.882 314.7 1.1 240 13.4
2010-09-07 07:00:58 51°18.477 2°50.88 314.4 1 240 13.3
2010-09-07 07:01:04 51°18.476 2°50.878 313.6 1.1 241 13.1
2010-09-07 07:01:08 51°18.476 2°50.876 313.1 1 240 13.1
2010-09-07 07:01:13 51°18.475 2°50.874 312.9 1.1 241 13.1
2010-09-07 07:01:18 51°18.475 2°50.872 312.3 1.1 246 13.3
2010-09-07 07:01:23 51°18.474 2°50.87 311.9 1.1 241 13.4
2010-09-07 07:01:28 51°18.473 2°50.868 311.5 1 241 13.3
2010-09-07 07:01:33 51°18.472 2°50.866 310.7 1.1 241 13.3
2010-09-07 07:01:38 51°18.472 2°50.864 310.6 1 243 13.5
2010-09-07 07:01:44 51°18.471 2°50.862 310.4 1 242 13.3
2010-09-07 07:01:48 51°18.47 2°50.86 310 1.1 244 13.3
2010-09-07 07:01:53 51°18.47 2°50.858 310 1.1 243 13.2
2010-09-07 07:01:58 51°18.47 2°50.857 309.7 1 243 13.3
2010-09-07 07:02:04 51°18.469 2°50.854 309.4 1.1 242 13.3
2010-09-07 07:02:08 51°18.468 2°50.852 309.3 1.1 243 13.2
2010-09-07 07:02:12 51°18.468 2°50.85 309.1 1.1 243 13.3
2010-09-07 07:02:18 51°18.467 2°50.848 309 1.1 243 13.5
2010-09-07 07:02:24 51°18.465 2°50.845 308.8 1 242 13.3
2010-09-07 07:02:28 51°18.465 2°50.843 308.7 1.1 243 13.3
2010-09-07 07:02:33 51°18.465 2°50.842 308.6 1.1 243 13.2
2010-09-07 07:02:38 51°18.464 2°50.84 308.6 1 243 13.2
2010-09-07 07:02:44 51°18.464 2°50.838 308.5 1 243 13.1
2010-09-07 07:02:48 51°18.463 2°50.835 308.3 1.2 242 13.1
2010-09-07 07:02:53 51°18.462 2°50.833 308.5 1.1 244 13.2
2010-09-07 07:02:58 51°18.461 2°50.831 308.5 1 248 13.2
2010-09-07 07:03:04 51°18.46 2°50.828 308.2 1.1 245 13.3
2010-09-07 07:03:08 51°18.46 2°50.827 308.1 1.2 242 13.6
2010-09-07 07:03:13 51°18.459 2°50.824 308.2 1 245 13.4
2010-09-07 07:03:18 51°18.458 2°50.822 307.9 1 245 13.2
2010-09-07 07:03:24 51°18.457 2°50.819 307.5 1.1 245 13.4
2010-09-07 07:03:28 51°18.456 2°50.818 307.5 1.1 245 13.4
2010-09-07 07:03:33 51°18.456 2°50.815 307.6 1 245 13.2
2010-09-07 07:03:38 51°18.455 2°50.813 307.4 1.1 247 13.4
2010-09-07 07:03:44 51°18.455 2°50.811 307.4 1 248 13.3
2010-09-07 07:03:48 51°18.454 2°50.809 307.1 1.1 243 13.5
2010-09-07 07:03:53 51°18.454 2°50.807 307.1 1 243 13.5
2010-09-07 07:03:58 51°18.453 2°50.805 307.1 1 245 13.1
2010-09-07 07:04:04 51°18.452 2°50.802 307 1.1 246 13.3
2010-09-07 07:04:08 51°18.452 2°50.801 306.8 1.1 243 13.5
2010-09-07 07:04:13 51°18.451 2°50.799 306.9 1 244 13.5
2010-09-07 07:04:18 51°18.45 2°50.796 306.7 1 243 13.4
2010-09-07 07:04:24 51°18.449 2°50.794 306.4 1.1 245 13.3
2010-09-07 07:04:28 51°18.449 2°50.792 305.9 1.2 243 13.6
2010-09-07 07:04:33 51°18.448 2°50.79 305.8 1.1 246 13.5
2010-09-07 07:04:38 51°18.447 2°50.788 305.7 1 246 13.2
2010-09-07 07:04:43 51°18.447 2°50.786 305.1 1.2 244 13.4
2010-09-07 07:04:48 51°18.446 2°50.783 304.9 1.1 249 13.3
2010-09-07 07:04:53 51°18.445 2°50.781 304.9 1.1 247 13.3
2010-09-07 07:04:58 51°18.445 2°50.779 304.8 1.1 247 13.3
2010-09-07 07:05:04 51°18.444 2°50.777 304.7 1.1 246 13.4
2010-09-07 07:05:08 51°18.444 2°50.775 304.5 1.2 243 13.5
2010-09-07 07:05:13 51°18.443 2°50.773 304.4 1 249 13.4
2010-09-07 07:05:18 51°18.443 2°50.77 304.2 1.1 248 13.3
2010-09-07 07:05:24 51°18.442 2°50.768 303.9 1.2 244 13.5
2010-09-07 07:05:28 51°18.441 2°50.766 303.7 1 250 13.3
2010-09-07 07:05:33 51°18.44 2°50.763 303.8 1.2 247 13.1
2010-09-07 07:05:38 51°18.44 2°50.761 303.4 1.3 244 13.6
2010-09-07 07:05:43 51°18.439 2°50.759 303.6 1.1 247 13.5
2010-09-07 07:05:48 51°18.438 2°50.756 303.4 1.2 244 13.4
2010-09-07 07:05:53 51°18.438 2°50.754 303 1.2 247 13.5
2010-09-07 07:05:58 51°18.437 2°50.752 303.4 1.1 248 13.5
2010-09-07 07:06:04 51°18.436 2°50.749 303.4 1.2 246 13.5
2010-09-07 07:06:08 51°18.436 2°50.747 303.1 1.1 245 13.6
2010-09-07 07:06:13 51°18.435 2°50.745 302.7 1.1 246 13.5
2010-09-07 07:06:18 51°18.434 2°50.742 302.3 1.1 246 13.2
2010-09-07 07:06:24 51°18.434 2°50.74 301.9 1.1 247 13.3
2010-09-07 07:06:28 51°18.433 2°50.738 301.3 1.1 248 13.4
2010-09-07 07:06:33 51°18.432 2°50.736 301 1.1 248 13.4
2010-09-07 07:06:38 51°18.432 2°50.733 300.6 1.2 245 13.5
2010-09-07 07:06:43 51°18.431 2°50.731 300.5 1.2 246 13.5
2010-09-07 07:06:48 51°18.431 2°50.729 300 1.1 247 13.4
2010-09-07 07:06:53 51°18.43 2°50.726 299.6 1.1 248 13.2
2010-09-07 07:06:58 51°18.429 2°50.724 299.1 1.2 246 13.3
2010-09-07 07:07:04 51°18.428 2°50.721 298.6 1.3 246 13.4
2010-09-07 07:07:08 51°18.428 2°50.719 298.6 1.2 245 13.6
2010-09-07 07:07:13 51°18.427 2°50.717 298.7 1.2 244 13.6
2010-09-07 07:07:18 51°18.426 2°50.714 298.2 1.1 247 13.5
2010-09-07 07:07:23 51°18.426 2°50.712 297.7 1.1 249 13.3
2010-09-07 07:07:28 51°18.425 2°50.709 297.1 1.2 248 13.3
2010-09-07 07:07:33 51°18.424 2°50.707 296.9 1.3 248 13.4
2010-09-07 07:07:38 51°18.424 2°50.705 296.8 1.2 246 13.7
2010-09-07 07:07:43 51°18.423 2°50.702 296.8 1 254 13.3
2010-09-07 07:07:48 51°18.423 2°50.7 296.2 1.1 248 13.3
2010-09-07 07:07:53 51°18.422 2°50.697 295.9 1.2 247 13.3
2010-09-07 07:07:58 51°18.421 2°50.695 296 1.2 248 13.4
2010-09-07 07:08:04 51°18.421 2°50.692 295.9 1.2 249 13.5
2010-09-07 07:08:08 51°18.42 2°50.69 295.5 1.2 250 13.4
2010-09-07 07:08:13 51°18.419 2°50.688 295.5 1.2 249 13.5
2010-09-07 07:08:18 51°18.419 2°50.685 295.4 1.2 249 13.6
2010-09-07 07:08:24 51°18.418 2°50.682 295.4 1.1 250 13.4
2010-09-07 07:08:28 51°18.418 2°50.681 295.4 1.1 250 13.5
2010-09-07 07:08:33 51°18.417 2°50.678 295.3 1 255 13.4
2010-09-07 07:08:38 51°18.417 2°50.676 295.4 1.1 248 13.2
2010-09-07 07:08:43 51°18.416 2°50.673 295.1 1.2 250 13.6
2010-09-07 07:08:48 51°18.416 2°50.671 295.4 1.1 253 13.3
2010-09-07 07:08:53 51°18.415 2°50.669 295.5 1.2 252 13.3
2010-09-07 07:08:58 51°18.414 2°50.666 295.3 1.2 247 13.5
2010-09-07 07:09:04 51°18.414 2°50.664 295.3 1.2 249 13.7
2010-09-07 07:09:08 51°18.413 2°50.662 295.2 1.2 248 13.5
2010-09-07 07:09:13 51°18.413 2°50.659 294.8 1.2 249 13.7
2010-09-07 07:09:18 51°18.412 2°50.657 294.8 1.1 251 13.5
2010-09-07 07:09:24 51°18.411 2°50.654 294.6 1.1 250 13.5
2010-09-07 07:09:28 51°18.411 2°50.652 294.2 1.3 248 13.6
2010-09-07 07:09:33 51°18.41 2°50.649 294 1.2 253 13.5
2010-09-07 07:09:38 51°18.41 2°50.647 294.2 1.3 247 13.6
2010-09-07 07:09:43 51°18.409 2°50.645 294 1.2 250 13.7
2010-09-07 07:09:48 51°18.408 2°50.642 294 1.2 251 13.4
2010-09-07 07:09:53 51°18.408 2°50.64 293.7 1.2 248 13.5
2010-09-07 07:09:58 51°18.407 2°50.637 293.6 1.1 254 13.5
2010-09-07 07:10:03 51°18.407 2°50.635 293.7 1.2 251 13.3
2010-09-07 07:10:08 51°18.406 2°50.632 293.7 1.2 250 13.5
2010-09-07 07:10:13 51°18.406 2°50.63 293.8 1.3 247 13.6
2010-09-07 07:10:18 51°18.405 2°50.628 293.9 1.1 252 13.6
2010-09-07 07:10:24 51°18.404 2°50.625 294 1.2 251 13.3
2010-09-07 07:10:28 51°18.404 2°50.622 293.6 1.3 246 13.5
2010-09-07 07:10:33 51°18.403 2°50.62 293.6 1.2 250 13.6
2010-09-07 07:10:38 51°18.402 2°50.618 293.8 1.2 250 13.6
2010-09-07 07:10:43 51°18.402 2°50.615 293.5 1.2 250 13.4
2010-09-07 07:10:48 51°18.401 2°50.613 293.4 1.3 248 13.4
2010-09-07 07:10:53 51°18.401 2°50.61 293.3 1.2 252 13.3
2010-09-07 07:10:58 51°18.4 2°50.608 293.2 1.2 249 13.4
2010-09-07 07:11:03 51°18.399 2°50.605 292.9 1.2 248 13.5
2010-09-07 07:11:08 51°18.399 2°50.603 293 1.2 250 13.6
2010-09-07 07:11:13 51°18.398 2°50.6 292.7 1.2 250 13.6
2010-09-07 07:11:18 51°18.398 2°50.598 292.6 1.2 249 13.5
2010-09-07 07:11:24 51°18.397 2°50.595 292.6 1.2 248 13.5
2010-09-07 07:11:28 51°18.396 2°50.593 292.6 1.3 250 13.6
2010-09-07 07:11:33 51°18.396 2°50.59 292.7 1.3 251 13.5
2010-09-07 07:11:38 51°18.395 2°50.587 292.5 1.3 254 13.6
2010-09-07 07:11:44 51°18.395 2°50.584 292.5 1.4 256 13.6
2010-09-07 07:11:48 51°18.394 2°50.581 292.4 1.5 254 13.7
2010-09-07 07:11:53 51°18.394 2°50.578 292.2 1.6 264 13.6
2010-09-07 07:11:58 51°18.393 2°50.573 291.8 2 265 13.5
2010-09-07 07:12:03 51°18.393 2°50.568 291.6 2.4 269 13.7
2010-09-07 07:12:08 51°18.393 2°50.562 292.6 2.6 273 13.6
2010-09-07 07:12:13 51°18.394 2°50.556 294.2 3 275 13.8
2010-09-07 07:12:18 51°18.394 2°50.549 296.2 3.3 276 13.6
2010-09-07 07:12:23 51°18.395 2°50.541 298.1 3.5 281 13.5
2010-09-07 07:12:28 51°18.396 2°50.533 300.5 3.8 282 13.4
2010-09-07 07:12:33 51°18.397 2°50.524 303 4.2 287 13.6
2010-09-07 07:12:38 51°18.399 2°50.515 306.6 4.5 291 13.8
2010-09-07 07:12:44 51°18.403 2°50.504 311.1 4.7 296 13.7
2010-09-07 07:12:48 51°18.406 2°50.496 316.3 4.8 300 13.8
2010-09-07 07:12:53 51°18.41 2°50.488 322.1 5 307 13.8
2010-09-07 07:12:58 51°18.414 2°50.479 328.4 5 315 13.6
2010-09-07 07:13:03 51°18.42 2°50.472 334.8 5.1 321 13.5
2010-09-07 07:13:08 51°18.426 2°50.466 341.1 5.1 327 13.7
2010-09-07 07:13:13 51°18.432 2°50.461 347.6 5.2 336 13.9
2010-09-07 07:13:18 51°18.439 2°50.457 354.1 5.3 343 14
2010-09-07 07:13:23 51°18.446 2°50.455 1 5.5 350 13.8
2010-09-07 07:13:28 51°18.454 2°50.454 6 5.7 354 13.5
2010-09-07 07:13:33 51°18.463 2°50.451 6.1 6.3 351 13.6
2010-09-07 07:13:38 51°18.472 2°50.449 3.8 6.8 349 13.7
2010-09-07 07:13:44 51°18.484 2°50.445 1.3 7.3 350 13.8
2010-09-07 07:13:48 51°18.492 2°50.442 0.1 7.7 347 13.8
2010-09-07 07:13:53 51°18.502 2°50.439 358.6 8 347 14
2010-09-07 07:13:58 51°18.513 2°50.434 357.5 8.4 346 14.1
2010-09-07 07:14:03 51°18.525 2°50.43 356.6 8.7 346 13.9
2010-09-07 07:14:08 51°18.537 2°50.424 355.8 8.9 345 13.8
2010-09-07 07:14:13 51°18.549 2°50.419 355.1 9.3 345 13.9
2010-09-07 07:14:18 51°18.562 2°50.413 354.6 9.7 344 13.9
2010-09-07 07:14:23 51°18.575 2°50.407 353.9 10 344 14
2010-09-07 07:14:28 51°18.589 2°50.401 353.6 10.3 344 13.9
2010-09-07 07:14:33 51°18.603 2°50.394 353.5 10.7 345 13.8
2010-09-07 07:14:38 51°18.618 2°50.388 353.8 11 345 13.8
2010-09-07 07:14:44 51°18.636 2°50.381 354.1 11.4 346 13.8
2010-09-07 07:14:48 51°18.648 2°50.375 354.2 11.6 345 13.5
2010-09-07 07:14:53 51°18.664 2°50.369 354.3 11.8 347 14.2
2010-09-07 07:14:58 51°18.68 2°50.363 354.6 12 347 14
2010-09-07 07:15:03 51°18.696 2°50.358 355.7 12 349 13.5
2010-09-07 07:15:08 51°18.713 2°50.352 356.1 12.1 347 13.6
2010-09-07 07:15:13 51°18.729 2°50.347 356.8 12.1 350 13.9
2010-09-07 07:15:18 51°18.746 2°50.342 357.4 12.3 349 13.6
2010-09-07 07:15:23 51°18.763 2°50.338 357.8 12.3 351 13.4
2010-09-07 07:15:28 51°18.779 2°50.334 358 12.3 350 13.3
2010-09-07 07:15:33 51°18.796 2°50.329 358 12.3 351 13.5
2010-09-07 07:15:38 51°18.813 2°50.325 358.6 12.4 351 13.5
2010-09-07 07:15:44 51°18.833 2°50.319 358.5 12.4 351 13.3
2010-09-07 07:15:48 51°18.847 2°50.317 358.6 12.4 352 13.5
2010-09-07 07:15:53 51°18.864 2°50.312 358.5 12.4 351 13.4
2010-09-07 07:15:58 51°18.881 2°50.308 358.7 12.3 352 12.9
2010-09-07 07:16:03 51°18.898 2°50.304 359 12.4 351 13.4
2010-09-07 07:16:08 51°18.915 2°50.3 358.8 12.3 352 13.2
2010-09-07 07:16:13 51°18.931 2°50.296 358.6 12.3 351 12.9
2010-09-07 07:16:18 51°18.948 2°50.292 359 12.4 353 13
2010-09-07 07:16:23 51°18.965 2°50.288 359.1 12.4 352 12.5
2010-09-07 07:16:28 51°18.982 2°50.285 359.3 12.4 352 12.4
2010-09-07 07:16:33 51°18.999 2°50.281 359.2 12.3 353 12.8
2010-09-07 07:16:38 51°19.016 2°50.277 359.3 12.4 351 12.4
2010-09-07 07:16:44 51°19.036 2°50.273 359 12.4 353 12.5
2010-09-07 07:16:48 51°19.05 2°50.269 358.9 12.4 352 12.2
2010-09-07 07:16:53 51°19.067 2°50.265 358.7 12.4 352 12.1
2010-09-07 07:16:58 51°19.084 2°50.262 358.6 12.4 353 12.3
2010-09-07 07:17:03 51°19.101 2°50.258 358.9 12.4 352 11.9
2010-09-07 07:17:08 51°19.118 2°50.255 359.2 12.4 353 11.9
2010-09-07 07:17:13 51°19.135 2°50.251 359.4 12.4 353 11.8
2010-09-07 07:17:18 51°19.152 2°50.248 359.4 12.4 353 11.8
2010-09-07 07:17:23 51°19.169 2°50.245 359.4 12.5 353 11.9
2010-09-07 07:17:28 51°19.186 2°50.242 359.3 12.4 353 11.8
2010-09-07 07:17:33 51°19.203 2°50.238 359.2 12.4 352 11.2
2010-09-07 07:17:38 51°19.221 2°50.234 358.9 12.4 353 11.3
2010-09-07 07:17:44 51°19.241 2°50.23 359.1 12.4 353 11.1
2010-09-07 07:17:48 51°19.255 2°50.228 359 12.4 352 10.8
2010-09-07 07:17:53 51°19.272 2°50.224 359.2 12.5 353 10.9
2010-09-07 07:17:58 51°19.289 2°50.221 359.3 12.5 353 11
2010-09-07 07:18:03 51°19.306 2°50.217 358.6 12.5 354 11.5
2010-09-07 07:18:08 51°19.323 2°50.214 359 12.5 353 11.1
2010-09-07 07:18:13 51°19.341 2°50.211 359.3 12.5 354 11.2
2010-09-07 07:18:18 51°19.358 2°50.208 359.4 12.6 353 11.2
2010-09-07 07:18:23 51°19.375 2°50.204 359.1 12.5 353 11.1
2010-09-07 07:18:28 51°19.392 2°50.201 359.1 12.5 354 11.1
2010-09-07 07:18:33 51°19.41 2°50.198 359.2 12.5 353 11.3
2010-09-07 07:18:38 51°19.427 2°50.195 359.1 12.5 353 11.1
2010-09-07 07:18:44 51°19.447 2°50.19 358.8 12.5 353 11.1
2010-09-07 07:18:48 51°19.461 2°50.187 358.8 12.6 353 11.1
2010-09-07 07:18:53 51°19.479 2°50.184 359 12.6 354 11.4
2010-09-07 07:18:58 51°19.496 2°50.181 358.8 12.6 353 11.3
2010-09-07 07:19:03 51°19.514 2°50.178 359 12.5 354 11.1
2010-09-07 07:19:08 51°19.531 2°50.175 359.4 12.5 354 11.4
2010-09-07 07:19:13 51°19.548 2°50.172 359.2 12.6 354 11.9
2010-09-07 07:19:18 51°19.565 2°50.169 359.4 12.6 354 11.6
2010-09-07 07:19:23 51°19.582 2°50.166 359.4 12.5 354 11.9
2010-09-07 07:19:28 51°19.6 2°50.163 359.7 12.6 355 12.4
2010-09-07 07:19:33 51°19.617 2°50.16 359.1 12.6 353 12
2010-09-07 07:19:38 51°19.635 2°50.156 359.2 12.6 353 12.4
2010-09-07 07:19:44 51°19.656 2°50.152 359.2 12.7 353 12.7
2010-09-07 07:19:48 51°19.669 2°50.15 358.7 12.7 353 12.8
2010-09-07 07:19:53 51°19.687 2°50.146 358.8 12.6 353 12.7
2010-09-07 07:19:58 51°19.704 2°50.143 358.7 12.6 353 12.9
2010-09-07 07:20:03 51°19.722 2°50.14 359 12.6 354 13.4
2010-09-07 07:20:08 51°19.739 2°50.137 359.1 12.6 353 14
2010-09-07 07:20:13 51°19.757 2°50.133 359.1 12.6 353 13.8
2010-09-07 07:20:18 51°19.774 2°50.13 359 12.7 353 13.8
2010-09-07 07:20:23 51°19.791 2°50.126 358.6 12.7 353 14
2010-09-07 07:20:28 51°19.809 2°50.123 358.9 12.7 353 13.7
2010-09-07 07:20:33 51°19.826 2°50.119 358.8 12.6 353 13.9
2010-09-07 07:20:38 51°19.843 2°50.116 358.9 12.6 353 14.1
2010-09-07 07:20:44 51°19.864 2°50.112 359 12.7 353 14.2
2010-09-07 07:20:48 51°19.878 2°50.11 359.1 12.6 353 14.3
2010-09-07 07:20:53 51°19.895 2°50.106 358.9 12.7 353 14.3
2010-09-07 07:20:58 51°19.912 2°50.102 359 12.7 352 14.3
2010-09-07 07:21:03 51°19.93 2°50.098 358.8 12.6 352 14.3
2010-09-07 07:21:08 51°19.947 2°50.094 358.4 12.6 352 14.6
2010-09-07 07:21:13 51°19.965 2°50.09 358.6 12.6 353 14.9
2010-09-07 07:21:18 51°19.982 2°50.087 358.8 12.6 352 14.9
2010-09-07 07:21:23 51°20 2°50.083 358.7 12.6 353 15
2010-09-07 07:21:28 51°20.017 2°50.079 359.1 12.7 352 15.1
2010-09-07 07:21:33 51°20.034 2°50.075 358.9 12.7 353 15.5
2010-09-07 07:21:38 51°20.051 2°50.071 358.7 12.7 352 15.5
2010-09-07 07:21:44 51°20.072 2°50.067 358.9 12.6 353 15.6
2010-09-07 07:21:48 51°20.086 2°50.063 358.9 12.6 352 15.9
2010-09-07 07:21:53 51°20.103 2°50.06 359.2 12.6 353 16.3
2010-09-07 07:21:58 51°20.121 2°50.056 359.4 12.6 352 16.2
2010-09-07 07:22:03 51°20.138 2°50.052 359.2 12.6 352 16.2
2010-09-07 07:22:08 51°20.155 2°50.049 359.3 12.5 353 16.8
2010-09-07 07:22:13 51°20.173 2°50.045 359.4 12.7 351 16.9
2010-09-07 07:22:18 51°20.19 2°50.041 359.1 12.7 352 17
2010-09-07 07:22:23 51°20.207 2°50.037 359.1 12.7 352 16.9
2010-09-07 07:22:28 51°20.225 2°50.033 359.1 12.7 352 17.2
2010-09-07 07:22:33 51°20.242 2°50.029 359.4 12.6 352 17.4
2010-09-07 07:22:38 51°20.259 2°50.025 359.6 12.7 352 18
2010-09-07 07:22:44 51°20.28 2°50.021 359.4 12.7 352 17.7
2010-09-07 07:22:48 51°20.294 2°50.018 359.6 12.6 353 18
2010-09-07 07:22:53 51°20.312 2°50.014 359.4 12.6 352 18.3
2010-09-07 07:22:58 51°20.329 2°50.01 359.7 12.6 353 18.4
2010-09-07 07:23:04 51°20.35 2°50.005 359.7 12.7 351 18.6
2010-09-07 07:23:08 51°20.364 2°50.003 359.4 12.6 353 19
2010-09-07 07:23:13 51°20.381 2°49.998 359.4 12.7 351 19.1
2010-09-07 07:23:18 51°20.399 2°49.994 359.1 12.7 352 19.4
2010-09-07 07:23:23 51°20.416 2°49.99 359.1 12.8 352 19.6
2010-09-07 07:23:28 51°20.433 2°49.986 359.4 12.7 353 19.5
2010-09-07 07:23:33 51°20.451 2°49.982 359.4 12.7 351 20.3
2010-09-07 07:23:38 51°20.468 2°49.978 358.9 12.7 352 20.6
2010-09-07 07:23:43 51°20.486 2°49.974 359.1 12.7 351 20.3
2010-09-07 07:23:48 51°20.503 2°49.97 358.9 12.6 352 20.4
2010-09-07 07:23:53 51°20.52 2°49.966 359.6 12.7 351 21
2010-09-07 07:23:58 51°20.538 2°49.961 359.1 12.7 351 20.9
2010-09-07 07:24:04 51°20.559 2°49.956 358.9 12.7 352 21.2
2010-09-07 07:24:08 51°20.572 2°49.953 359 12.7 351 21.1
2010-09-07 07:24:13 51°20.59 2°49.949 359.1 12.7 352 21.2
2010-09-07 07:24:18 51°20.607 2°49.945 359.4 12.7 352 21.3
2010-09-07 07:24:23 51°20.625 2°49.941 359.4 12.7 351 21.7
2010-09-07 07:24:28 51°20.642 2°49.937 359.2 12.7 351 21.6
2010-09-07 07:24:33 51°20.659 2°49.933 358.8 12.7 352 21.6
2010-09-07 07:24:38 51°20.677 2°49.929 359.4 12.7 352 21.6
2010-09-07 07:24:43 51°20.694 2°49.925 359.4 12.7 352 21.7
2010-09-07 07:24:48 51°20.712 2°49.921 359.4 12.8 352 21.9
2010-09-07 07:24:53 51°20.729 2°49.917 359.5 12.8 352 22
2010-09-07 07:24:58 51°20.747 2°49.913 359.4 12.6 352 22
2010-09-07 07:25:04 51°20.768 2°49.908 359.6 12.7 352 22.3
2010-09-07 07:25:08 51°20.782 2°49.905 359.9 12.7 352 22.3
2010-09-07 07:25:13 51°20.799 2°49.901 359.2 12.8 351 22.3
2010-09-07 07:25:18 51°20.817 2°49.897 359.1 12.7 352 22.3
2010-09-07 07:25:23 51°20.834 2°49.893 359.3 12.7 351 22.3
2010-09-07 07:25:28 51°20.852 2°49.889 359.2 12.7 351 22.5
2010-09-07 07:25:33 51°20.869 2°49.885 359.2 12.7 352 22.5
2010-09-07 07:25:38 51°20.887 2°49.881 359.4 12.6 352 22.3
2010-09-07 07:25:43 51°20.904 2°49.877 359.5 12.7 353 22.5
2010-09-07 07:25:48 51°20.922 2°49.873 359.4 12.8 352 22
2010-09-07 07:25:53 51°20.939 2°49.869 359.6 12.6 352 22.3
2010-09-07 07:25:58 51°20.956 2°49.866 359.7 12.6 353 22.7
2010-09-07 07:26:04 51°20.977 2°49.861 359.4 12.8 351 22.8
2010-09-07 07:26:08 51°20.991 2°49.859 359.5 12.7 353 22.8
2010-09-07 07:26:13 51°21.009 2°49.855 359.6 12.6 352 22.4
2010-09-07 07:26:18 51°21.026 2°49.852 359.6 12.7 352 22.8
2010-09-07 07:26:23 51°21.044 2°49.848 359.4 12.8 353 22.6
2010-09-07 07:26:28 51°21.061 2°49.844 359.4 12.8 352 22.4
2010-09-07 07:26:33 51°21.079 2°49.84 358.9 12.8 352 21.8
2010-09-07 07:26:38 51°21.096 2°49.836 358.9 12.6 352 22.3
2010-09-07 07:26:43 51°21.114 2°49.832 359 12.8 351 22.7
2010-09-07 07:26:48 51°21.131 2°49.829 359.1 12.7 353 22.4
2010-09-07 07:26:53 51°21.148 2°49.824 359.1 12.7 351 22
2010-09-07 07:26:58 51°21.166 2°49.821 359.2 12.6 353 22
2010-09-07 07:27:04 51°21.187 2°49.817 359.4 12.6 353 21.8
2010-09-07 07:27:08 51°21.2 2°49.814 359.6 12.7 352 22.2
2010-09-07 07:27:13 51°21.218 2°49.81 359.3 12.7 353 22
2010-09-07 07:27:18 51°21.235 2°49.807 359.3 12.7 353 21.7
2010-09-07 07:27:23 51°21.253 2°49.803 359.5 12.7 352 21.9
2010-09-07 07:27:28 51°21.27 2°49.8 359.2 12.7 353 21.7
2010-09-07 07:27:33 51°21.288 2°49.796 359.2 12.8 353 21.8
2010-09-07 07:27:38 51°21.305 2°49.792 359.3 12.8 352 21.6
2010-09-07 07:27:43 51°21.323 2°49.788 359.1 12.7 352 21.4
2010-09-07 07:27:48 51°21.34 2°49.784 359.1 12.6 352 21.8
2010-09-07 07:27:53 51°21.358 2°49.779 358.6 12.8 350 21.6
2010-09-07 07:27:58 51°21.375 2°49.775 358.3 12.6 352 21
2010-09-07 07:28:04 51°21.396 2°49.77 358.3 12.5 351 21.3
2010-09-07 07:28:08 51°21.41 2°49.767 358.5 12.5 352 21.5
2010-09-07 07:28:13 51°21.427 2°49.764 359.6 12.6 353 21.3
2010-09-07 07:28:18 51°21.444 2°49.76 359.3 12.6 351 21.1
2010-09-07 07:28:23 51°21.462 2°49.756 358.8 12.5 351 21.1
2010-09-07 07:28:28 51°21.479 2°49.751 358.6 12.6 351 21.2
2010-09-07 07:28:33 51°21.496 2°49.748 359.2 12.6 351 21.1
2010-09-07 07:28:38 51°21.513 2°49.743 358.6 12.5 351 20.9
2010-09-07 07:28:43 51°21.531 2°49.74 359 12.5 352 21.2
2010-09-07 07:28:48 51°21.548 2°49.735 359.2 12.5 351 21.4
2010-09-07 07:28:53 51°21.565 2°49.733 359.8 12.5 353 21.3
2010-09-07 07:28:58 51°21.582 2°49.728 359.5 12.5 351 21.4
2010-09-07 07:29:04 51°21.603 2°49.725 359.5 12.4 353 21.4
2010-09-07 07:29:08 51°21.616 2°49.721 359.4 12.5 352 21.7
2010-09-07 07:29:13 51°21.633 2°49.718 359.5 12.5 352 21.7
2010-09-07 07:29:18 51°21.65 2°49.714 359.2 12.4 352 21.4
2010-09-07 07:29:23 51°21.667 2°49.71 359.1 12.4 353 21.6
2010-09-07 07:29:28 51°21.684 2°49.706 359.4 12.4 352 21.8
2010-09-07 07:29:33 51°21.701 2°49.702 358.9 12.5 351 22
2010-09-07 07:29:38 51°21.718 2°49.698 358.6 12.4 352 21.9
2010-09-07 07:29:43 51°21.735 2°49.694 358.9 12.4 351 22
2010-09-07 07:29:48 51°21.753 2°49.69 358.6 12.5 352 21.9
2010-09-07 07:29:53 51°21.77 2°49.686 358.7 12.3 351 22.1
2010-09-07 07:29:58 51°21.786 2°49.682 359.4 12.4 353 22.9
2010-09-07 07:30:04 51°21.807 2°49.678 359.7 12.4 352 22.6
2010-09-07 07:30:08 51°21.821 2°49.676 359.4 12.2 354 22
2010-09-07 07:30:13 51°21.838 2°49.672 359.8 12.3 351 22.8
2010-09-07 07:30:18 51°21.854 2°49.668 359.5 12.3 352 22.6
2010-09-07 07:30:23 51°21.871 2°49.665 359.4 12.3 353 22.4
2010-09-07 07:30:28 51°21.888 2°49.661 -999 12.3 353 22.8
2010-09-07 07:30:33 51°21.905 2°49.657 359.6 12.4 352 22.8
2010-09-07 07:30:38 51°21.922 2°49.654 359.8 12.4 352 22.7
2010-09-07 07:30:43 51°21.939 2°49.65 359.6 12.5 353 23
2010-09-07 07:30:48 51°21.957 2°49.647 359.3 12.5 352 22.6
2010-09-07 07:30:53 51°21.974 2°49.643 359.4 12.4 352 22.7
2010-09-07 07:30:58 51°21.99 2°49.639 359.5 12.4 352 22.7
2010-09-07 07:31:04 51°22.011 2°49.635 359.5 12.5 353 22.7
2010-09-07 07:31:08 51°22.025 2°49.632 359.2 12.5 352 23
2010-09-07 07:31:13 51°22.042 2°49.628 359 12.6 352 23
2010-09-07 07:31:18 51°22.06 2°49.624 359.3 12.5 353 22.7
2010-09-07 07:31:23 51°22.077 2°49.62 359.2 12.5 352 22.6
2010-09-07 07:31:28 51°22.094 2°49.617 359.2 12.5 352 22.8
2010-09-07 07:31:33 51°22.112 2°49.613 359.1 12.5 352 22.8
2010-09-07 07:31:38 51°22.129 2°49.609 358.9 12.6 352 23.3
2010-09-07 07:31:43 51°22.146 2°49.606 359.6 12.6 353 23.1
2010-09-07 07:31:48 51°22.163 2°49.601 358.9 12.5 352 23.5
2010-09-07 07:31:53 51°22.18 2°49.599 359.6 12.6 355 23.4
2010-09-07 07:31:58 51°22.198 2°49.595 0.1 12.5 353 22.8
2010-09-07 07:32:04 51°22.218 2°49.592 359.4 12.5 356 23.2
2010-09-07 07:32:08 51°22.232 2°49.59 0.1 12.5 354 23.1
2010-09-07 07:32:13 51°22.249 2°49.587 359.4 12.6 354 22.8
2010-09-07 07:32:18 51°22.266 2°49.585 359.8 12.5 355 22.4
2010-09-07 07:32:23 51°22.283 2°49.581 359.6 12.5 354 22.8
2010-09-07 07:32:28 51°22.301 2°49.578 359.3 12.5 354 22.5
2010-09-07 07:32:33 51°22.318 2°49.575 359.3 12.5 355 21.7
2010-09-07 07:32:38 51°22.336 2°49.574 359.9 12.5 354 21
2010-09-07 07:32:43 51°22.353 2°49.57 359.5 12.5 352 20.1
2010-09-07 07:32:48 51°22.371 2°49.567 358.5 12.5 353 20.8
2010-09-07 07:32:53 51°22.388 2°49.562 356.3 12.5 349 21.9
2010-09-07 07:32:58 51°22.405 2°49.558 356.4 12.4 351 22.3
2010-09-07 07:33:04 51°22.425 2°49.551 355.4 12.5 348 22.3
2010-09-07 07:33:08 51°22.439 2°49.548 354.8 12.4 351 21.8
2010-09-07 07:33:13 51°22.456 2°49.542 355 12.6 348 20.6
2010-09-07 07:33:18 51°22.473 2°49.537 354.7 12.5 350 20.1
2010-09-07 07:33:23 51°22.49 2°49.531 354 12.5 347 20.1
2010-09-07 07:33:28 51°22.507 2°49.525 353.8 12.5 348 21
2010-09-07 07:33:33 51°22.524 2°49.52 353.8 12.5 349 20.1
2010-09-07 07:33:38 51°22.541 2°49.514 353.9 12.5 347 19.4
2010-09-07 07:33:43 51°22.558 2°49.508 353.3 12.4 348 19.1
2010-09-07 07:33:48 51°22.574 2°49.502 353.4 12.3 348 19.3
2010-09-07 07:33:53 51°22.591 2°49.497 353.9 12.4 348 18.3
2010-09-07 07:33:58 51°22.608 2°49.491 353.8 12.4 348 17.2
2010-09-07 07:34:04 51°22.628 2°49.484 353.6 12.4 349 16.6
2010-09-07 07:34:08 51°22.642 2°49.48 354.1 12.4 349 16
2010-09-07 07:34:13 51°22.659 2°49.474 353.8 12.4 348 15.2
2010-09-07 07:34:18 51°22.675 2°49.469 353.8 12.3 348 14.8
2010-09-07 07:34:24 51°22.695 2°49.462 354 12.2 349 14.8
2010-09-07 07:34:28 51°22.708 2°49.458 354 12.2 347 16.5
2010-09-07 07:34:33 51°22.725 2°49.452 353.2 12.3 347 16.2
2010-09-07 07:34:38 51°22.742 2°49.446 352.9 12.3 347 15
2010-09-07 07:34:43 51°22.758 2°49.439 352.1 12.2 346 14.6
2010-09-07 07:34:48 51°22.776 2°49.432 350.8 12.2 344 14.3
2010-09-07 07:34:53 51°22.792 2°49.425 350.9 12.1 346 13.6
2010-09-07 07:34:58 51°22.808 2°49.418 350.7 12.2 344 14
2010-09-07 07:35:04 51°22.827 2°49.41 350.6 12.2 345 15.2
2010-09-07 07:35:08 51°22.84 2°49.404 350 12.2 344 15.2
2010-09-07 07:35:13 51°22.857 2°49.397 351.3 12.2 346 14.4
2010-09-07 07:35:18 51°22.873 2°49.39 351.3 12.2 345 15.5
2010-09-07 07:35:23 51°22.889 2°49.383 351.3 12.2 346 16
2010-09-07 07:35:28 51°22.905 2°49.377 351.6 12.2 346 16.1
2010-09-07 07:35:33 51°22.922 2°49.37 351.3 12.1 345 14.8
2010-09-07 07:35:38 51°22.939 2°49.364 351.7 12 345 15.1
2010-09-07 07:35:43 51°22.955 2°49.356 351.1 12.2 343 15.3
2010-09-07 07:35:48 51°22.971 2°49.348 350.2 12.2 345 14.1
2010-09-07 07:35:53 51°22.987 2°49.34 350.4 12.2 343 15.3
2010-09-07 07:35:58 51°23.003 2°49.334 350.7 12.3 345 16.3
2010-09-07 07:36:04 51°23.023 2°49.324 350 12.3 343 16.7
2010-09-07 07:36:08 51°23.036 2°49.318 349.9 12.4 345 17.5
2010-09-07 07:36:13 51°23.053 2°49.31 350.5 12.4 344 17.5
2010-09-07 07:36:18 51°23.069 2°49.302 350.7 12.3 344 17.3
2010-09-07 07:36:23 51°23.085 2°49.294 350.3 12.3 343 17.4
2010-09-07 07:36:28 51°23.102 2°49.287 350.1 12.3 344 16.9
2010-09-07 07:36:33 51°23.118 2°49.28 350.7 11.8 344 17.4
2010-09-07 07:36:38 51°23.133 2°49.272 350.9 11.6 344 16.7
2010-09-07 07:36:43 51°23.148 2°49.265 350.7 11.6 342 15.6
2010-09-07 07:36:48 51°23.163 2°49.257 350.2 11.4 343 16.2
2010-09-07 07:36:53 51°23.178 2°49.25 350.6 11 342 16.9
2010-09-07 07:36:58 51°23.192 2°49.242 350.1 10.6 343 17.9
2010-09-07 07:37:04 51°23.208 2°49.234 350.7 10.3 342 18.4
2010-09-07 07:37:08 51°23.219 2°49.229 351.4 9.8 343 18.5
2010-09-07 07:37:13 51°23.231 2°49.223 351.2 9.4 342 18.9
2010-09-07 07:37:18 51°23.243 2°49.217 351.3 9 343 19.4
2010-09-07 07:37:23 51°23.255 2°49.211 351.6 8.8 341 19.5
2010-09-07 07:37:28 51°23.266 2°49.205 351.4 8.6 342 19.6
2010-09-07 07:37:33 51°23.277 2°49.2 351.5 8.1 342 20
2010-09-07 07:37:38 51°23.287 2°49.194 351.4 7.7 341 20.4
2010-09-07 07:37:43 51°23.297 2°49.189 351.7 7.5 342 20.4
2010-09-07 07:37:48 51°23.307 2°49.183 351.8 7.4 340 20.3
2010-09-07 07:37:53 51°23.316 2°49.178 351.4 7.2 340 20.4
2010-09-07 07:37:58 51°23.325 2°49.173 351.4 6.8 339 20.6
2010-09-07 07:38:04 51°23.336 2°49.167 351.1 6.7 339 20.7
2010-09-07 07:38:08 51°23.342 2°49.163 351.1 6.4 338 20.7
2010-09-07 07:38:13 51°23.35 2°49.157 350.9 6.3 337 21.1
2010-09-07 07:38:18 51°23.358 2°49.152 350.9 6.1 338 21
2010-09-07 07:38:23 51°23.366 2°49.146 350.9 6.1 336 20.1
2010-09-07 07:38:28 51°23.374 2°49.141 350.8 6 339 19.6
2010-09-07 07:38:33 51°23.381 2°49.136 350.8 5.9 337 18.6
2010-09-07 07:38:38 51°23.389 2°49.131 350.7 5.9 336 18.9
2010-09-07 07:38:43 51°23.396 2°49.125 350.2 5.9 335 19.2
2010-09-07 07:38:48 51°23.404 2°49.12 349.9 5.9 336 19.6
2010-09-07 07:38:53 51°23.411 2°49.114 349.6 5.8 336 19.9
2010-09-07 07:38:58 51°23.418 2°49.109 349.6 5.9 335 20.5
2010-09-07 07:39:04 51°23.427 2°49.103 349.9 5.7 336 20.4
2010-09-07 07:39:08 51°23.432 2°49.099 350.7 5.6 336 20.7
2010-09-07 07:39:13 51°23.439 2°49.094 351 5.5 338 21.1
2010-09-07 07:39:18 51°23.447 2°49.09 351.4 5.5 336 21.1
2010-09-07 07:39:23 51°23.454 2°49.085 351.7 5.5 336 21.4
2010-09-07 07:39:28 51°23.461 2°49.08 351.9 5.4 337 21.6
2010-09-07 07:39:33 51°23.468 2°49.076 352.1 5.4 337 21.7
2010-09-07 07:39:38 51°23.475 2°49.071 352 5.4 337 21.8
2010-09-07 07:39:43 51°23.481 2°49.067 352.1 5.2 336 21.5
2010-09-07 07:39:48 51°23.488 2°49.062 351.4 5.1 334 21.3
2010-09-07 07:39:53 51°23.494 2°49.057 350.6 4.8 332 21.6
2010-09-07 07:39:58 51°23.499 2°49.052 349.5 4.6 330 21.6
2010-09-07 07:40:04 51°23.505 2°49.046 348.1 4.4 329 21.9
2010-09-07 07:40:08 51°23.509 2°49.041 347 4.2 327 22.1
2010-09-07 07:40:13 51°23.514 2°49.036 345.5 4 324 22.1
2010-09-07 07:40:18 51°23.518 2°49.031 343.8 3.7 321 22.3
2010-09-07 07:40:23 51°23.522 2°49.026 342.7 3.4 319 22.4
2010-09-07 07:40:28 51°23.525 2°49.021 341.7 3.1 316 22.1
2010-09-07 07:40:33 51°23.528 2°49.017 340.3 3 312 22
2010-09-07 07:40:38 51°23.53 2°49.011 337.8 2.8 307 21.8
2010-09-07 07:40:43 51°23.532 2°49.007 334.6 2.5 301 21.8
2010-09-07 07:40:48 51°23.533 2°49.002 330.7 2.4 296 21.8
2010-09-07 07:40:53 51°23.534 2°48.998 326.4 2.2 287 21.7
2010-09-07 07:40:58 51°23.535 2°48.993 322.3 2 279 21.6
2010-09-07 07:41:03 51°23.535 2°48.99 318.9 1.7 275 21.5
2010-09-07 07:41:08 51°23.535 2°48.986 315.4 1.6 268 21
2010-09-07 07:41:13 51°23.535 2°48.983 311.9 1.3 257 20.6
2010-09-07 07:41:18 51°23.534 2°48.981 308.6 1.2 244 20.4
2010-09-07 07:41:24 51°23.533 2°48.979 305.6 1.1 229 20.7
2010-09-07 07:41:28 51°23.532 2°48.978 303.6 1.1 219 20.8
2010-09-07 07:41:33 51°23.531 2°48.976 302 0.9 218 20.4
2010-09-07 07:41:38 51°23.53 2°48.975 301 1 218 20
2010-09-07 07:41:43 51°23.529 2°48.973 300.5 1 218 19.9
2010-09-07 07:41:48 51°23.528 2°48.972 300.6 1 222 19.9
2010-09-07 07:41:53 51°23.527 2°48.971 300.6 0.9 221 20.4
2010-09-07 07:41:58 51°23.526 2°48.969 300.8 0.9 221 21
2010-09-07 07:42:03 51°23.525 2°48.968 301.7 0.9 221 21.1
2010-09-07 07:42:08 51°23.524 2°48.967 302.7 1 218 21.1
2010-09-07 07:42:13 51°23.523 2°48.965 303.7 0.9 220 21.4
2010-09-07 07:42:18 51°23.522 2°48.964 304.4 0.9 220 21.3
2010-09-07 07:42:24 51°23.52 2°48.962 305.2 0.9 221 21.3
2010-09-07 07:42:28 51°23.52 2°48.961 305.8 1.1 219 21.9
2010-09-07 07:42:33 51°23.519 2°48.96 306.9 0.9 223 22.1
2010-09-07 07:42:38 51°23.517 2°48.958 307.8 0.9 223 21.9
2010-09-07 07:42:43 51°23.516 2°48.957 308.2 1 221 22
2010-09-07 07:42:48 51°23.515 2°48.956 309.3 0.9 217 22.1
2010-09-07 07:42:53 51°23.514 2°48.955 310.2 0.9 220 21.7
2010-09-07 07:42:58 51°23.513 2°48.953 311.2 1 220 21.6
2010-09-07 07:43:03 51°23.512 2°48.952 312.2 1 217 21.9
2010-09-07 07:43:08 51°23.511 2°48.951 313 1 218 22
2010-09-07 07:43:13 51°23.51 2°48.949 313.9 0.9 213 21.9
2010-09-07 07:43:18 51°23.509 2°48.948 314.8 1 218 22
2010-09-07 07:43:24 51°23.508 2°48.947 315.3 1 218 22
2010-09-07 07:43:28 51°23.507 2°48.946 316 1 217 22.3
2010-09-07 07:43:33 51°23.506 2°48.944 316.5 0.9 214 21.9
2010-09-07 07:43:38 51°23.505 2°48.943 317.4 1.1 218 22
2010-09-07 07:43:43 51°23.504 2°48.942 318.1 0.9 218 22
2010-09-07 07:43:48 51°23.502 2°48.94 319.2 1 217 22
2010-09-07 07:43:53 51°23.502 2°48.939 320.2 0.9 213 21.9
2010-09-07 07:43:58 51°23.501 2°48.938 321.3 0.9 216 21.7
2010-09-07 07:44:03 51°23.499 2°48.936 321.9 1 223 21.8